Time;durP1;ratioP1;P1;durP2;ratioP2;P2;SDS_P1;SDS_P2;PMS_P1;PMS_P2;Temp;Humidity;BMP_temperature;BMP_pressure;BME280_temperature;BME280_humidity;BME280_pressure;Samples;Min_cycle;Max_cycle;Signal;HPM_P1;HPM_P2
2023/08/16 00:00:08;;;;;;;4.43;4.03;;;;;;;18.94;75.74;93646.91;514121;28;1532;-45
2023/08/16 00:00:24;;;;;;;4.63;4.22;;;;;;;18.95;75.77;93650.44;514137;28;848;-46
2023/08/16 00:00:39;;;;;;;5.22;4.72;;;;;;;18.94;75.86;93649.69;514108;28;830;-44
2023/08/16 00:00:55;;;;;;;5.17;4.70;;;;;;;18.94;75.65;93644.09;513945;28;900;-44
2023/08/16 00:01:10;;;;;;;4.75;4.30;;;;;;;18.92;75.71;93647.50;514050;28;923;-46
2023/08/16 00:01:25;;;;;;;4.47;4.03;;;;;;;18.92;75.72;93641.91;514035;28;972;-44
2023/08/16 00:01:41;;;;;;;4.80;4.33;;;;;;;18.91;75.75;93643.22;514155;28;843;-44
2023/08/16 00:01:56;;;;;;;5.07;4.57;;;;;;;18.91;75.76;93639.69;514097;28;1477;-46
2023/08/16 00:02:11;;;;;;;4.60;4.20;;;;;;;18.91;75.86;93646.03;514117;28;841;-47
2023/08/16 00:02:27;;;;;;;4.57;3.90;;;;;;;18.92;75.99;93646.78;514133;28;915;-44
2023/08/16 00:02:42;;;;;;;4.75;4.20;;;;;;;18.91;76.13;93646.03;514080;28;858;-45
2023/08/16 00:02:58;;;;;;;4.90;4.50;;;;;;;18.92;76.43;93646.78;514045;28;1067;-46
2023/08/16 00:03:13;;;;;;;5.20;4.70;;;;;;;18.91;76.38;93642.50;514126;28;1525;-45
2023/08/16 00:03:29;;;;;;;4.87;4.37;;;;;;;18.92;76.42;93646.78;514044;28;869;-46
2023/08/16 00:03:44;;;;;;;5.00;4.50;;;;;;;18.92;76.72;93643.97;514121;28;853;-45
2023/08/16 00:04:00;;;;;;;5.53;4.93;;;;;;;18.92;76.40;93641.16;514203;28;793;-45
2023/08/16 00:04:15;;;;;;;5.13;4.60;;;;;;;18.91;76.33;93643.22;514095;28;848;-45
2023/08/16 00:04:31;;;;;;;4.80;4.32;;;;;;;18.92;76.32;93641.16;514196;28;773;-45
2023/08/16 00:04:47;;;;;;;5.00;4.50;;;;;;;18.92;76.46;93641.91;514177;28;834;-45
2023/08/16 00:05:03;;;;;;;5.77;4.60;;;;;;;18.91;76.36;93646.03;514096;28;785;-45
2023/08/16 00:05:18;;;;;;;5.57;4.57;;;;;;;18.91;76.21;93645.28;514174;28;820;-44
2023/08/16 00:05:34;;;;;;;5.03;4.60;;;;;;;18.92;76.30;93643.97;514108;28;822;-43
2023/08/16 00:05:49;;;;;;;4.87;4.47;;;;;;;18.92;76.29;93644.72;514144;28;955;-45
2023/08/16 00:06:09;;;;;;;4.60;4.20;;;;;;;18.90;76.43;93641.78;514087;28;915;-44
2023/08/16 00:06:24;;;;;;;4.75;4.25;;;;;;;18.92;76.27;93646.78;513632;28;1087;-44
2023/08/16 00:06:42;;;;;;;5.22;4.60;;;;;;;18.89;76.44;93639.56;513965;28;866;-45
2023/08/16 00:06:58;;;;;;;5.85;5.00;;;;;;;18.93;76.37;93645.41;513987;28;871;-44
2023/08/16 00:07:13;;;;;;;6.10;5.07;;;;;;;18.92;76.43;93646.78;513963;28;1163;-45
2023/08/16 00:07:28;;;;;;;5.10;4.60;;;;;;;18.92;76.35;93644.72;513876;28;883;-45
2023/08/16 00:07:45;;;;;;;4.73;4.33;;;;;;;18.92;76.26;93647.50;513976;28;790;-44
2023/08/16 00:08:00;;;;;;;4.82;4.43;;;;;;;18.92;76.13;93639.13;513990;28;825;-44
2023/08/16 00:08:15;;;;;;;5.50;4.37;;;;;;;18.92;76.24;93649.56;513924;28;935;-45
2023/08/16 00:08:31;;;;;;;7.17;4.30;;;;;;;18.93;76.19;93637.75;514167;28;825;-45
2023/08/16 00:08:46;;;;;;;5.82;4.40;;;;;;;18.94;76.27;93644.09;514085;28;867;-44
2023/08/16 00:09:02;;;;;;;4.97;4.50;;;;;;;18.94;76.27;93638.50;514133;28;836;-45
2023/08/16 00:09:17;;;;;;;5.78;4.70;;;;;;;18.94;76.15;93641.31;514124;28;797;-44
2023/08/16 00:09:32;;;;;;;5.63;4.47;;;;;;;18.93;76.14;93643.38;514127;28;812;-44
2023/08/16 00:09:50;;;;;;;4.93;4.43;;;;;;;18.93;76.22;93642.63;514120;28;801;-45
2023/08/16 00:10:14;;;;;;;4.85;4.43;;;;;;;18.93;76.01;93640.56;514090;28;919;-44
2023/08/16 00:10:30;;;;;;;5.07;4.57;;;;;;;18.94;76.08;93644.09;514125;28;823;-45
2023/08/16 00:10:45;;;;;;;5.37;4.50;;;;;;;18.96;76.03;93641.44;514096;28;810;-45
2023/08/16 00:11:00;;;;;;;5.93;4.53;;;;;;;18.96;75.97;93640.69;514145;28;878;-44
2023/08/16 00:11:16;;;;;;;4.83;4.33;;;;;;;18.95;75.97;93642.75;514132;28;1142;-45
2023/08/16 00:11:31;;;;;;;4.90;4.50;;;;;;;18.95;75.94;93639.25;514032;28;951;-44
2023/08/16 00:11:47;;;;;;;4.80;4.40;;;;;;;18.95;75.78;93642.75;514120;28;795;-45
2023/08/16 00:12:03;;;;;;;4.60;4.20;;;;;;;18.96;75.85;93641.44;514141;28;899;-45
2023/08/16 00:12:18;;;;;;;4.60;4.20;;;;;;;18.94;75.86;93638.50;514103;28;809;-44
2023/08/16 00:12:34;;;;;;;4.43;4.03;;;;;;;18.82;75.91;93627.25;514095;28;856;-46
2023/08/16 00:12:49;;;;;;;4.60;4.20;;;;;;;18.89;75.96;93631.16;514171;28;766;-45
2023/08/16 00:13:04;;;;;;;4.83;4.43;;;;;;;18.94;75.86;93638.50;514197;28;773;-44
2023/08/16 00:13:20;;;;;;;4.80;4.40;;;;;;;18.94;75.91;93644.09;514083;28;1272;-45
2023/08/16 00:13:35;;;;;;;4.90;4.50;;;;;;;18.91;75.92;93631.31;514021;28;1979;-44
2023/08/16 00:13:51;;;;;;;5.63;4.73;;;;;;;18.93;76.03;93640.56;514108;28;1629;-44
2023/08/16 00:14:06;;;;;;;5.50;4.55;;;;;;;18.93;75.99;93637.03;514114;28;818;-44
2023/08/16 00:14:22;;;;;;;4.90;4.40;;;;;;;18.92;75.90;93641.91;514092;28;876;-44
2023/08/16 00:14:38;;;;;;;5.25;4.65;;;;;;;18.92;75.97;93644.72;514094;28;1716;-45
2023/08/16 00:14:53;;;;;;;5.33;4.70;;;;;;;18.93;75.90;93640.56;514111;28;838;-44
2023/08/16 00:15:09;;;;;;;5.00;4.50;;;;;;;18.92;75.89;93641.91;514093;28;843;-44
2023/08/16 00:15:26;;;;;;;4.80;4.40;;;;;;;18.92;76.00;93638.38;514033;28;942;-45
2023/08/16 00:15:41;;;;;;;4.65;4.25;;;;;;;18.92;75.85;93639.13;514094;28;1744;-44
2023/08/16 00:15:57;;;;;;;4.73;4.33;;;;;;;18.93;76.00;93639.81;514187;28;754;-44
2023/08/16 00:16:12;;;;;;;4.70;4.30;;;;;;;18.92;75.88;93641.91;514093;28;851;-45
2023/08/16 00:16:27;;;;;;;4.43;4.10;;;;;;;18.93;75.92;93645.41;514102;28;1097;-45
2023/08/16 00:16:43;;;;;;;4.37;4.00;;;;;;;18.93;76.00;93642.63;514065;28;847;-44
2023/08/16 00:16:58;;;;;;;4.50;4.10;;;;;;;18.87;75.99;93634.56;514144;28;791;-45
2023/08/16 00:17:14;;;;;;;4.83;4.40;;;;;;;18.93;75.99;93646.16;514066;28;1501;-44
2023/08/16 00:17:29;;;;;;;5.00;4.50;;;;;;;18.93;76.08;93645.41;514012;28;840;-45
2023/08/16 00:17:44;;;;;;;4.63;4.22;;;;;;;18.93;75.90;93637.03;514137;28;1062;-45
2023/08/16 00:18:00;;;;;;;4.33;3.93;;;;;;;18.92;75.84;93635.56;514123;28;775;-44
2023/08/16 00:18:15;;;;;;;4.32;3.92;;;;;;;18.93;75.87;93640.56;514161;28;840;-45
2023/08/16 00:18:31;;;;;;;4.57;4.17;;;;;;;18.89;75.81;93631.16;514092;28;878;-45
2023/08/16 00:18:46;;;;;;;4.57;4.17;;;;;;;18.94;75.86;93638.50;514069;28;784;-45
2023/08/16 00:19:01;;;;;;;4.63;4.22;;;;;;;18.93;75.94;93640.56;514121;28;775;-45
2023/08/16 00:19:17;;;;;;;4.77;4.37;;;;;;;18.94;75.89;93644.09;513940;28;835;-45
2023/08/16 00:19:32;;;;;;;4.83;4.33;;;;;;;18.94;76.04;93638.50;513667;28;856;-44
2023/08/16 00:19:47;;;;;;;4.70;4.25;;;;;;;18.93;75.86;93637.03;513838;28;798;-45
2023/08/16 00:20:04;;;;;;;5.10;4.60;;;;;;;18.93;75.72;93634.97;514152;28;770;-44
2023/08/16 00:20:20;;;;;;;5.38;4.88;;;;;;;18.92;75.79;93636.31;514133;28;862;-46
2023/08/16 00:20:35;;;;;;;4.73;4.33;;;;;;;18.94;75.98;93638.50;514093;28;852;-45
2023/08/16 00:20:51;;;;;;;4.38;3.97;;;;;;;18.94;75.97;93641.31;514089;28;911;-43
2023/08/16 00:21:06;;;;;;;4.57;4.17;;;;;;;18.95;76.04;93639.97;514083;28;894;-44
2023/08/16 00:21:21;;;;;;;4.70;4.30;;;;;;;18.93;75.92;93637.75;514026;28;876;-44
2023/08/16 00:21:37;;;;;;;4.40;4.00;;;;;;;18.93;76.06;93637.75;514059;28;931;-44
2023/08/16 00:21:52;;;;;;;4.83;4.10;;;;;;;18.95;75.93;93639.25;514051;28;822;-45
2023/08/16 00:22:08;;;;;;;4.77;4.30;;;;;;;18.95;75.76;93645.56;514093;28;871;-44
2023/08/16 00:22:23;;;;;;;4.65;4.25;;;;;;;18.94;75.80;93632.91;514129;28;761;-45
2023/08/16 00:22:39;;;;;;;4.77;4.27;;;;;;;18.93;75.72;93643.38;514101;28;829;-44
2023/08/16 00:22:54;;;;;;;4.85;4.30;;;;;;;18.95;75.80;93642.03;514167;28;807;-44
2023/08/16 00:23:10;;;;;;;4.63;4.23;;;;;;;18.93;75.66;93637.75;514075;28;875;-44
2023/08/16 00:23:25;;;;;;;5.00;4.50;;;;;;;18.93;75.54;93642.63;513971;28;1555;-45
2023/08/16 00:23:40;;;;;;;4.87;4.40;;;;;;;18.91;75.60;93634.84;514099;28;848;-45
2023/08/16 00:23:56;;;;;;;4.50;4.10;;;;;;;18.91;75.56;93639.69;514066;28;771;-44
2023/08/16 00:24:11;;;;;;;4.77;4.37;;;;;;;18.91;75.65;93634.84;514070;28;1129;-44
2023/08/16 00:24:27;;;;;;;4.82;4.43;;;;;;;18.84;75.56;93626.66;514191;28;832;-44
2023/08/16 00:24:42;;;;;;;4.78;4.35;;;;;;;18.91;75.57;93639.69;514014;28;833;-45
2023/08/16 00:24:57;;;;;;;4.53;4.13;;;;;;;18.90;75.59;93638.97;514090;28;975;-44
2023/08/16 00:25:13;;;;;;;4.53;4.13;;;;;;;18.89;75.68;93645.91;514051;28;851;-45
2023/08/16 00:25:28;;;;;;;4.78;4.28;;;;;;;18.88;75.81;93635.31;514034;28;870;-46
2023/08/16 00:25:43;;;;;;;4.73;4.33;;;;;;;18.88;75.85;93638.81;514088;28;853;-44
2023/08/16 00:25:59;;;;;;;4.60;4.20;;;;;;;18.89;75.76;93636.75;514223;28;847;-44
2023/08/16 00:26:14;;;;;;;4.60;4.20;;;;;;;18.87;75.79;93636.63;514155;28;785;-43
2023/08/16 00:26:30;;;;;;;4.78;4.35;;;;;;;18.88;75.88;93633.22;514115;28;958;-45
2023/08/16 00:26:46;;;;;;;4.45;4.05;;;;;;;18.89;76.04;93631.16;514111;28;1095;-45
2023/08/16 00:27:03;;;;;;;4.50;4.10;;;;;;;18.88;75.94;93630.44;514062;28;961;-45
2023/08/16 00:27:18;;;;;;;4.68;4.20;;;;;;;18.88;76.11;93636.03;514095;28;962;-44
2023/08/16 00:27:34;;;;;;;4.60;4.20;;;;;;;18.87;76.25;93639.44;514036;28;863;-45
2023/08/16 00:27:49;;;;;;;4.60;4.20;;;;;;;18.88;76.23;93635.31;514129;28;860;-44
2023/08/16 00:28:05;;;;;;;4.80;4.40;;;;;;;18.88;76.16;93633.22;514122;28;1120;-44
2023/08/16 00:28:20;;;;;;;4.93;4.53;;;;;;;18.88;76.21;93633.22;514097;28;911;-45
2023/08/16 00:28:35;;;;;;;4.83;4.40;;;;;;;18.89;76.30;93636.75;514090;28;995;-45
2023/08/16 00:28:53;;;;;;;4.70;4.30;;;;;;;18.87;76.45;93637.38;514053;28;872;-45
2023/08/16 00:29:09;;;;;;;4.85;4.20;;;;;;;18.87;76.38;93633.84;513996;28;836;-45
2023/08/16 00:29:24;;;;;;;5.47;4.30;;;;;;;18.86;76.46;93638.69;514060;28;789;-47
2023/08/16 00:29:39;;;;;;;4.40;4.00;;;;;;;18.87;76.29;93636.63;514106;28;746;-44
2023/08/16 00:29:55;;;;;;;4.53;3.83;;;;;;;18.87;76.45;93636.63;514174;28;850;-46
2023/08/16 00:30:11;;;;;;;4.50;4.10;;;;;;;18.86;76.40;93638.69;514132;28;870;-46
2023/08/16 00:30:26;;;;;;;4.75;4.35;;;;;;;18.87;76.42;93631.03;514122;28;837;-45
2023/08/16 00:30:42;;;;;;;4.90;4.40;;;;;;;18.88;76.43;93629.72;514052;28;907;-44
2023/08/16 00:30:57;;;;;;;4.85;4.35;;;;;;;18.87;76.56;93628.97;514075;28;891;-45
2023/08/16 00:31:12;;;;;;;4.63;4.23;;;;;;;18.88;76.60;93627.63;514049;28;1537;-45
2023/08/16 00:31:28;;;;;;;4.57;4.17;;;;;;;18.87;76.55;93631.78;514095;28;826;-43
2023/08/16 00:31:43;;;;;;;4.80;4.40;;;;;;;18.88;76.53;93630.44;514009;28;888;-44
2023/08/16 00:32:00;;;;;;;4.87;4.47;;;;;;;18.88;76.49;93632.50;514086;28;797;-45
2023/08/16 00:32:16;;;;;;;4.90;4.40;;;;;;;18.89;76.76;93637.50;514003;28;864;-46
2023/08/16 00:32:31;;;;;;;5.40;4.65;;;;;;;18.89;76.64;93631.16;514108;28;977;-46
2023/08/16 00:32:47;;;;;;;5.17;4.67;;;;;;;18.89;76.54;93625.56;514040;28;903;-46
2023/08/16 00:33:02;;;;;;;5.20;4.50;;;;;;;18.88;76.95;93624.13;514048;28;844;-44
2023/08/16 00:33:17;;;;;;;4.68;4.22;;;;;;;18.88;76.60;93641.63;514027;28;851;-45
2023/08/16 00:33:33;;;;;;;5.00;4.50;;;;;;;18.89;76.73;93631.16;514019;28;876;-45
2023/08/16 00:33:49;;;;;;;5.03;4.50;;;;;;;18.90;76.88;93627.06;513942;28;1991;-44
2023/08/16 00:34:04;;;;;;;4.72;4.32;;;;;;;18.90;76.91;93627.78;514074;28;923;-44
2023/08/16 00:34:19;;;;;;;4.80;4.23;;;;;;;18.90;76.89;93632.66;514057;28;899;-45
2023/08/16 00:34:35;;;;;;;4.70;4.15;;;;;;;18.90;76.82;93630.59;514083;28;872;-44
2023/08/16 00:34:50;;;;;;;4.73;4.30;;;;;;;18.91;76.88;93637.63;514081;28;867;-46
2023/08/16 00:35:06;;;;;;;5.00;4.40;;;;;;;18.91;76.81;93634.84;514140;28;765;-45
2023/08/16 00:35:21;;;;;;;5.25;4.30;;;;;;;18.92;76.64;93641.91;513939;28;851;-45
2023/08/16 00:35:37;;;;;;;6.30;4.30;;;;;;;18.91;76.57;93629.25;514037;28;848;-44
2023/08/16 00:35:52;;;;;;;5.83;4.30;;;;;;;18.93;76.57;93645.41;514124;28;853;-45
2023/08/16 00:36:08;;;;;;;4.70;4.30;;;;;;;18.91;76.65;93631.31;514162;28;805;-44
2023/08/16 00:36:23;;;;;;;4.90;4.50;;;;;;;18.91;76.49;93634.84;514046;28;911;-46
2023/08/16 00:36:38;;;;;;;5.13;4.67;;;;;;;18.91;76.50;93636.91;514030;28;868;-44
2023/08/16 00:36:54;;;;;;;4.90;4.47;;;;;;;18.90;76.60;93638.25;514092;28;852;-46
2023/08/16 00:37:09;;;;;;;4.70;4.30;;;;;;;18.90;76.65;93636.19;514149;28;801;-44
2023/08/16 00:37:25;;;;;;;4.80;4.40;;;;;;;18.91;76.59;93634.09;514031;28;805;-44
2023/08/16 00:37:40;;;;;;;4.77;4.27;;;;;;;18.92;76.69;93635.56;514015;28;974;-46
2023/08/16 00:37:58;;;;;;;4.50;4.10;;;;;;;18.92;76.86;93638.38;514047;28;840;-44
2023/08/16 00:38:13;;;;;;;5.05;4.65;;;;;;;18.91;76.81;93640.44;514011;28;981;-44
2023/08/16 00:38:29;;;;;;;5.20;4.70;;;;;;;18.92;77.00;93643.97;514057;28;864;-44
2023/08/16 00:38:44;;;;;;;4.80;4.40;;;;;;;18.92;76.87;93633.53;514037;28;879;-44
2023/08/16 00:38:59;;;;;;;4.67;4.17;;;;;;;18.92;76.99;93635.56;514036;28;852;-45
2023/08/16 00:39:15;;;;;;;4.90;4.13;;;;;;;18.93;77.13;93637.75;514094;28;852;-46
2023/08/16 00:39:30;;;;;;;4.53;4.13;;;;;;;18.92;77.07;93629.97;514044;28;844;-44
2023/08/16 00:39:46;;;;;;;4.57;4.17;;;;;;;18.89;77.01;93631.16;514012;28;862;-45
2023/08/16 00:40:01;;;;;;;4.90;4.40;;;;;;;18.96;77.01;93640.69;514028;28;805;-44
2023/08/16 00:40:16;;;;;;;5.07;4.57;;;;;;;18.96;76.95;93635.84;513915;28;2432;-45
2023/08/16 00:40:32;;;;;;;5.10;4.60;;;;;;;18.97;77.01;93639.38;514012;28;859;-44
2023/08/16 00:40:48;;;;;;;5.10;4.60;;;;;;;18.96;76.93;93635.84;514068;28;849;-45
2023/08/16 00:41:04;;;;;;;5.10;4.60;;;;;;;18.96;77.03;93635.84;513847;28;815;-44
2023/08/16 00:41:19;;;;;;;5.17;4.67;;;;;;;18.96;76.86;93635.84;513830;28;879;-46
2023/08/16 00:41:34;;;;;;;5.27;4.83;;;;;;;18.97;76.93;93640.13;513877;28;880;-45
2023/08/16 00:41:50;;;;;;;4.97;4.57;;;;;;;18.98;77.00;93643.63;513931;28;853;-44
2023/08/16 00:42:05;;;;;;;4.73;4.33;;;;;;;18.98;76.89;93638.78;513911;28;1155;-44
2023/08/16 00:42:20;;;;;;;4.85;4.45;;;;;;;18.97;76.91;93637.31;513921;28;810;-45
2023/08/16 00:42:36;;;;;;;5.10;4.60;;;;;;;18.98;76.92;93635.97;513903;28;932;-45
2023/08/16 00:42:51;;;;;;;4.83;4.40;;;;;;;18.98;76.85;93644.38;513909;28;1553;-44
2023/08/16 00:43:06;;;;;;;4.57;4.18;;;;;;;18.98;76.99;93638.78;514055;28;846;-45
2023/08/16 00:43:22;;;;;;;4.80;4.40;;;;;;;18.99;77.06;93636.72;513961;28;856;-44
2023/08/16 00:43:38;;;;;;;4.73;4.33;;;;;;;18.99;76.72;93636.72;514064;28;907;-44
2023/08/16 00:43:53;;;;;;;4.55;4.15;;;;;;;18.99;76.76;93636.72;514070;28;999;-48
2023/08/16 00:44:09;;;;;;;5.18;4.43;;;;;;;18.99;76.66;93639.50;514032;28;785;-45
2023/08/16 00:44:24;;;;;;;5.30;4.40;;;;;;;19.00;76.71;93643.75;514097;28;1026;-45
2023/08/16 00:44:39;;;;;;;5.30;4.13;;;;;;;19.01;76.65;93639.63;514098;28;750;-44
2023/08/16 00:44:55;;;;;;;5.82;4.20;;;;;;;19.00;76.40;93633.31;513994;28;915;-44
2023/08/16 00:45:10;;;;;;;6.27;4.27;;;;;;;19.00;76.56;93636.09;514053;28;862;-45
2023/08/16 00:45:26;;;;;;;6.03;4.45;;;;;;;19.01;76.54;93637.59;513940;28;891;-45
2023/08/16 00:45:42;;;;;;;4.82;4.20;;;;;;;19.02;76.52;93641.84;513995;28;844;-44
2023/08/16 00:45:58;;;;;;;4.70;4.30;;;;;;;19.02;76.44;93639.03;514053;28;852;-45
2023/08/16 00:46:14;;;;;;;4.90;4.50;;;;;;;19.02;76.34;93641.84;514132;28;799;-44
2023/08/16 00:46:30;;;;;;;4.67;4.30;;;;;;;19.02;76.27;93641.09;514111;28;777;-45
2023/08/16 00:46:46;;;;;;;4.72;4.32;;;;;;;19.02;76.25;93629.91;513997;28;942;-45
2023/08/16 00:47:01;;;;;;;4.63;4.23;;;;;;;19.03;76.27;93634.91;514016;28;832;-45
2023/08/16 00:47:17;;;;;;;4.72;4.32;;;;;;;18.99;76.16;93629.06;513869;28;924;-45
2023/08/16 00:47:33;;;;;;;5.03;4.60;;;;;;;19.00;76.35;93627.72;513760;28;857;-45
2023/08/16 00:47:49;;;;;;;5.03;4.53;;;;;;;19.01;76.36;93631.25;511904;29;853;-44
2023/08/16 00:48:04;;;;;;;4.80;4.20;;;;;;;18.99;76.35;93634.66;511931;29;810;-45
2023/08/16 00:48:20;;;;;;;4.57;4.18;;;;;;;18.95;76.42;93628.75;511883;29;829;-45
2023/08/16 00:48:37;;;;;;;5.00;4.57;;;;;;;19.02;76.44;93632.69;511927;29;785;-45
2023/08/16 00:48:52;;;;;;;5.00;4.60;;;;;;;19.01;76.49;93631.97;511911;29;833;-46
2023/08/16 00:49:08;;;;;;;4.70;4.30;;;;;;;19.01;76.43;93634.78;512491;28;880;-45
2023/08/16 00:49:23;;;;;;;4.57;4.17;;;;;;;19.01;76.30;93631.25;511857;29;812;-45
2023/08/16 00:49:40;;;;;;;4.85;4.10;;;;;;;19.01;76.31;93637.59;511888;28;892;-44
2023/08/16 00:49:55;;;;;;;5.63;4.28;;;;;;;19.00;76.36;93630.50;511913;29;884;-44
2023/08/16 00:50:10;;;;;;;5.63;4.30;;;;;;;19.01;76.28;93634.03;511943;28;852;-45
2023/08/16 00:50:26;;;;;;;4.68;4.20;;;;;;;19.01;76.29;93634.03;509893;29;1514;-44
2023/08/16 00:50:41;;;;;;;5.10;4.60;;;;;;;19.00;76.30;93636.09;510316;29;769;-45
2023/08/16 00:50:57;;;;;;;5.22;4.70;;;;;;;19.00;76.41;93636.09;509980;29;802;-44
2023/08/16 00:51:13;;;;;;;5.07;4.40;;;;;;;19.01;76.39;93634.03;510430;29;842;-44
2023/08/16 00:51:28;;;;;;;5.55;4.40;;;;;;;19.01;76.41;93631.25;511810;28;888;-44
2023/08/16 00:51:45;;;;;;;5.65;4.70;;;;;;;19.01;76.27;93636.84;511873;28;874;-44
2023/08/16 00:52:01;;;;;;;5.10;4.60;;;;;;;19.01;76.31;93631.97;511930;29;827;-46
2023/08/16 00:52:16;;;;;;;5.20;4.70;;;;;;;19.01;76.30;93634.03;510481;29;867;-44
2023/08/16 00:52:32;;;;;;;5.00;4.60;;;;;;;19.00;76.12;93630.50;509894;29;911;-45
2023/08/16 00:52:47;;;;;;;4.75;4.35;;;;;;;19.01;76.08;93636.84;509436;29;833;-46
2023/08/16 00:53:03;;;;;;;5.17;4.40;;;;;;;19.01;76.16;93634.03;508472;29;820;-44
2023/08/16 00:53:18;;;;;;;5.47;4.40;;;;;;;19.01;76.14;93631.25;509934;29;801;-45
2023/08/16 00:53:34;;;;;;;5.20;4.60;;;;;;;18.92;76.09;93616.00;509926;29;1483;-45
2023/08/16 00:53:49;;;;;;;5.25;4.75;;;;;;;19.01;76.16;93628.44;507887;29;1978;-46
2023/08/16 00:54:05;;;;;;;5.20;4.70;;;;;;;19.00;76.13;93636.09;508251;29;1690;-46
2023/08/16 00:54:21;;;;;;;4.88;4.47;;;;;;;19.00;76.27;93627.72;510301;29;804;-44
2023/08/16 00:54:36;;;;;;;4.73;4.33;;;;;;;19.00;76.29;93636.09;511929;29;753;-44
2023/08/16 00:54:51;;;;;;;4.72;4.30;;;;;;;19.00;76.47;93629.75;511941;28;798;-43
2023/08/16 00:55:08;;;;;;;4.80;4.13;;;;;;;19.00;76.19;93636.09;511896;29;832;-44
2023/08/16 00:55:24;;;;;;;4.50;4.10;;;;;;;18.99;76.01;93634.66;511886;29;835;-45
2023/08/16 00:55:40;;;;;;;4.82;4.43;;;;;;;19.00;76.15;93630.50;512469;28;854;-44
2023/08/16 00:55:56;;;;;;;4.70;4.30;;;;;;;18.99;76.01;93634.66;512387;28;896;-45
2023/08/16 00:56:13;;;;;;;4.60;4.20;;;;;;;19.00;76.20;93632.56;511885;29;1590;-46
2023/08/16 00:56:28;;;;;;;4.70;4.30;;;;;;;18.99;75.92;93628.31;511904;29;793;-45
2023/08/16 00:56:44;;;;;;;4.53;4.13;;;;;;;18.99;76.02;93629.06;511865;29;793;-46
2023/08/16 00:57:00;;;;;;;4.57;4.20;;;;;;;18.99;75.98;93628.31;509892;29;790;-45
2023/08/16 00:57:16;;;;;;;4.78;4.38;;;;;;;18.91;76.01;93622.91;509917;29;837;-44
2023/08/16 00:57:31;;;;;;;4.60;4.20;;;;;;;18.98;76.14;93633.19;509838;29;908;-44
2023/08/16 00:57:47;;;;;;;5.03;4.40;;;;;;;18.98;76.15;93629.63;510636;29;884;-45
2023/08/16 00:58:03;;;;;;;4.82;4.18;;;;;;;18.97;75.95;93634.53;511929;29;840;-44
2023/08/16 00:58:18;;;;;;;4.82;4.32;;;;;;;18.98;76.01;93621.25;511826;29;864;-45
2023/08/16 00:58:33;;;;;;;5.00;4.50;;;;;;;18.98;75.65;93624.03;511829;29;893;-44
2023/08/16 00:58:49;;;;;;;5.55;4.63;;;;;;;18.97;76.03;93628.94;510400;29;806;-45
2023/08/16 00:59:05;;;;;;;5.17;4.67;;;;;;;18.96;76.12;93624.66;510224;29;782;-44
2023/08/16 00:59:20;;;;;;;4.65;4.25;;;;;;;18.96;76.11;93627.44;511880;29;849;-45
2023/08/16 00:59:36;;;;;;;4.75;4.35;;;;;;;18.96;76.17;93630.25;511889;28;879;-44
2023/08/16 00:59:51;;;;;;;4.60;4.20;;;;;;;18.97;76.24;93630.97;511915;29;828;-45
2023/08/16 01:00:08;;;;;;;4.30;4.00;;;;;;;18.97;76.24;93622.59;511843;28;868;-44
2023/08/16 01:00:23;;;;;;;4.70;4.30;;;;;;;18.97;76.26;93626.13;511870;29;849;-45
2023/08/16 01:00:39;;;;;;;4.37;3.97;;;;;;;18.96;76.35;93623.91;512377;28;840;-44
2023/08/16 01:00:54;;;;;;;4.25;3.85;;;;;;;18.96;76.28;93619.06;511737;29;863;-46
2023/08/16 01:01:10;;;;;;;4.87;4.40;;;;;;;18.96;76.26;93623.91;511847;29;788;-44
2023/08/16 01:01:25;;;;;;;4.95;4.53;;;;;;;18.96;76.26;93626.72;512328;28;889;-45
2023/08/16 01:01:42;;;;;;;5.20;4.70;;;;;;;18.96;76.41;93626.72;511858;29;928;-44
2023/08/16 01:01:58;;;;;;;5.38;4.90;;;;;;;18.94;76.33;93627.31;511861;29;878;-46
2023/08/16 01:02:14;;;;;;;4.80;4.40;;;;;;;18.95;76.29;93625.25;511860;29;836;-44
2023/08/16 01:02:30;;;;;;;4.43;4.03;;;;;;;18.94;76.22;93630.13;511908;29;835;-45
2023/08/16 01:02:45;;;;;;;4.10;3.80;;;;;;;18.95;76.08;93622.47;512556;28;845;-45
2023/08/16 01:03:01;;;;;;;4.53;4.07;;;;;;;18.92;76.20;93625.13;513850;28;1131;-45
2023/08/16 01:03:16;;;;;;;5.57;4.50;;;;;;;18.91;76.21;93620.84;513803;28;1008;-46
2023/08/16 01:03:31;;;;;;;5.47;4.65;;;;;;;18.90;76.07;93618.66;513861;28;900;-45
2023/08/16 01:03:47;;;;;;;4.73;4.30;;;;;;;18.91;76.10;93622.91;513969;28;903;-44
2023/08/16 01:04:03;;;;;;;4.65;4.25;;;;;;;18.90;76.05;93615.88;514018;28;778;-44
2023/08/16 01:04:19;;;;;;;5.20;4.72;;;;;;;18.81;76.07;93603.41;515793;28;876;-45
2023/08/16 01:04:35;;;;;;;4.72;4.32;;;;;;;18.87;76.17;93617.78;515823;28;946;-44
2023/08/16 01:04:50;;;;;;;4.77;4.37;;;;;;;18.87;76.05;93619.84;515845;28;885;-45
2023/08/16 01:05:06;;;;;;;4.93;4.53;;;;;;;18.86;76.37;93618.41;515874;28;823;-45
2023/08/16 01:05:22;;;;;;;4.72;4.22;;;;;;;18.86;76.32;93621.19;515790;28;873;-44
2023/08/16 01:05:37;;;;;;;4.63;4.10;;;;;;;18.84;76.40;93610.59;515865;28;854;-45
2023/08/16 01:05:53;;;;;;;4.72;4.32;;;;;;;18.85;76.51;93625.31;513854;28;777;-45
2023/08/16 01:06:08;;;;;;;4.73;4.33;;;;;;;18.85;76.42;93619.72;513697;28;1167;-45
2023/08/16 01:06:23;;;;;;;4.53;4.13;;;;;;;18.84;76.52;93618.25;513588;28;1166;-45
2023/08/16 01:06:39;;;;;;;4.78;4.28;;;;;;;18.84;76.66;93621.78;513838;28;856;-45
2023/08/16 01:06:57;;;;;;;4.80;4.23;;;;;;;18.83;76.63;93616.78;513835;28;884;-45
2023/08/16 01:07:14;;;;;;;4.95;4.45;;;;;;;18.80;76.78;93612.38;513718;28;1443;-44
2023/08/16 01:07:29;;;;;;;4.97;4.47;;;;;;;18.81;76.96;93620.19;513765;28;924;-44
2023/08/16 01:07:45;;;;;;;4.63;4.23;;;;;;;18.81;76.94;93614.59;513172;28;786;-44
2023/08/16 01:08:01;;;;;;;4.82;4.40;;;;;;;18.80;76.87;93618.72;511921;28;983;-44
2023/08/16 01:08:18;;;;;;;4.90;4.45;;;;;;;18.81;76.72;93613.84;512022;28;971;-45
2023/08/16 01:08:34;;;;;;;5.25;4.47;;;;;;;18.81;76.81;93622.25;511981;28;863;-44
2023/08/16 01:08:50;;;;;;;5.13;4.63;;;;;;;18.80;76.86;93618.72;511968;29;893;-45
2023/08/16 01:09:05;;;;;;;5.15;4.70;;;;;;;18.80;76.80;93621.50;511808;29;975;-44
2023/08/16 01:09:21;;;;;;;5.00;4.50;;;;;;;18.79;76.82;93617.25;511769;29;814;-45
2023/08/16 01:09:36;;;;;;;4.78;4.20;;;;;;;18.80;76.83;93623.56;511842;29;864;-44
2023/08/16 01:09:52;;;;;;;5.33;4.50;;;;;;;18.79;76.84;93622.84;511884;29;829;-45
2023/08/16 01:10:08;;;;;;;5.90;4.82;;;;;;;18.79;76.88;93622.84;511831;29;845;-44
2023/08/16 01:10:31;;;;;;;5.03;4.50;;;;;;;18.78;76.96;93615.03;511926;28;812;-44
2023/08/16 01:11:16;;;;;;;4.82;4.40;;;;;;;18.79;76.92;93619.31;511782;29;983;-44
2023/08/16 01:11:45;;;;;;;5.18;4.68;;;;;;;18.79;76.82;93622.13;511733;29;1033;-44
2023/08/16 01:12:23;;;;;;;5.07;4.57;;;;;;;18.79;77.03;93622.13;511836;29;904;-45
2023/08/16 01:12:57;;;;;;;5.38;4.88;;;;;;;18.78;77.09;93623.44;512498;28;865;-45
2023/08/16 01:13:23;;;;;;;4.72;4.30;;;;;;;18.77;77.13;93622.72;513835;28;864;-44
2023/08/16 01:13:44;;;;;;;5.18;4.30;;;;;;;18.76;77.01;93615.66;511658;29;1918;-45
2023/08/16 01:14:09;;;;;;;4.97;4.47;;;;;;;18.75;77.04;93619.78;510870;29;1242;-45
2023/08/16 01:14:50;;;;;;;4.93;4.53;;;;;;;18.76;77.02;93612.13;511768;29;870;-44
2023/08/16 01:15:19;;;;;;;4.07;3.70;;;;;;;18.77;76.91;93619.19;509630;29;992;-45
2023/08/16 01:15:38;;;;;;;5.15;4.75;;;;;;;18.77;77.00;93617.13;511788;29;884;-44
2023/08/16 01:15:56;;;;;;;5.03;4.63;;;;;;;18.76;76.94;93614.91;510940;29;900;-43
2023/08/16 01:16:11;;;;;;;5.55;4.53;;;;;;;18.75;77.00;93614.16;511795;29;1493;-45
2023/08/16 01:16:28;;;;;;;5.53;4.63;;;;;;;18.75;76.80;93614.16;511907;29;802;-45
2023/08/16 01:16:45;;;;;;;5.15;4.72;;;;;;;18.75;76.86;93619.06;511782;29;926;-46
2023/08/16 01:17:00;;;;;;;5.25;4.75;;;;;;;18.75;76.90;93616.25;511014;29;877;-46
2023/08/16 01:17:16;;;;;;;5.23;4.73;;;;;;;18.74;76.83;93618.31;511840;28;790;-44
2023/08/16 01:17:31;;;;;;;4.90;4.47;;;;;;;18.74;76.88;93611.97;511738;28;1096;-45
2023/08/16 01:17:47;;;;;;;4.77;4.27;;;;;;;18.74;76.81;93614.78;512788;28;807;-44
2023/08/16 01:18:03;;;;;;;5.05;4.50;;;;;;;18.72;76.85;93615.38;513808;28;809;-44
2023/08/16 01:18:19;;;;;;;5.03;4.53;;;;;;;18.73;76.81;93613.31;511765;28;918;-44
2023/08/16 01:18:39;;;;;;;4.63;4.22;;;;;;;18.73;76.83;93616.13;509849;29;979;-44
2023/08/16 01:18:56;;;;;;;4.65;4.13;;;;;;;18.71;76.85;93613.19;509829;29;823;-45
2023/08/16 01:19:15;;;;;;;4.60;4.20;;;;;;;18.71;76.77;93616.69;509788;29;932;-45